Terminal Aerodrome Forecast
Issued by NWS Rapid City, SD

Home | Current Version | Previous Version | Text Only | Print | Product List | Glossary Off
Versions: 1 2 3 4 5 6 7 8 9 10 11 12 13 14 15 16 17 18 19 20 21 22 23

000
FTUS43 KUNR 181729
TAFRAP
TAF
KRAP 181729Z 1818/1918 04011KT 6SM -RA SCT015 OVC035
      TEMPO 1818/1822 OVC012
     FM182200 04011KT 6SM -RA SCT007 OVC012
     FM190500 35022G32KT P6SM SCT035 OVC100
     FM191500 35025G35KT P6SM SCT100=

USA.gov is the U.S. government's official web portal to all federal, state and local government web resources and services.